Archival Weather

Fukuoka

Fukuoka, Japan (RJFF)

Report from: Tuesday, August 16, 2022 7:30 PM JST
Current time: Sunday, November 27, 2022 5:51 PM JST

Current weather
Weather history
Weather forecast

Present weatherLight rain showers, light thunderstorm with rain
Temperature27.0°C (80.6°F)
Heat index30.6°C (87.0°F)
Dew point25.0°C (77.0°F)
Winds 13 kts (6.7 m/s, 15 mph) South-Southeast (150°)
Visibility6.2 mi. (10 km)
Clouds Few clouds 500 ft. (152 m)
Few clouds with cumulonimbus 3,000 ft. (914 m)
Scattered clouds 3,500 ft. (1,067 m)
Ceiling: Broken clouds 4,000 ft. (1,219 m)
Altimeter29.74 in.Hg (1007 mB)
Relative humidity89 %
Density altitude2,017 ft. (615 m)
Flight conditions Visual Meteorological Conditions
Raw dataRJFF 161030Z 15013KT 9999 -SHRA FEW005 FEW030CB SCT035 BKN040 27/25 Q1007 TEMPO 4000 -TSRA BR
An error has occurred. This application may no longer respond until reloaded. Reload 🗙